Terminal Aerodrome Forecast
Issued by NWS Austin/San Antonio, TX

Home | Current Version | Previous Version | Text Only | Print | Product List | Glossary On
Versions: 1 2 3 4 5 6 7 8 9 10 11 12 13
000
FTUS44 KEWX 241722
TAFAUS
TAF
KAUS 241722Z 2418/2524 34012G22KT P6SM FEW250
     FM242300 33010KT P6SM SKC
     FM250600 01010KT P6SM SKC=

USA.gov is the U.S. government's official web portal to all federal, state and local government web resources and services.